Disclaimer

Please do not use the information listed here in-flight or in-navigation, as they are not provided to us by the airports but are provided by volunteers, so they might be outdated.

Search


Regions


Airport information page

No radio frequency information is available.

Airport informations:
Latitude: 58° 13' 47.58" N
Longitude: 022° 30' 34.18" E
Elevation: 14 feet - 4 meters
Operating hours: Remarks
Operating agency: Civil government, landing fees and diplomatic clearance may be required
Timezone: UTC+2(+3DT) - Last Sunday in March to last Sunday in October
Fuel: 100/130 MIL Spec, low lead, aviation gasoline (BLUE)

Runway information:
05/23 - 2621 x 98 feet< - >799 x 30 meters
17/35 - 4980 x 98 feet< - >1518 x 30 meters

Recent METARs:
EEKE 192050Z AUTO 04006KT 9999NDV -SN OVC018 01/M02 Q1036
EEKE 192050Z AUTO 04006KT 9999NDV -SN OVC018 01/M02 Q1036
EEKE 192150Z AUTO 04006KT 9999NDV OVC018 01/M02 Q1036

Airport on the map: